Versailles, New York
Current Conditions -  °F | °C
As of 1:53 PM on Thursday 30 Oct 2014 (Local Time) from KDKK Reporting Station
Overcast Overcast  
Wind Chill: 42°   Ceiling: 3600
Heat Index: 47°   Visibility: 10mi
Dew Point: 35°   Wind: 10mph
Humidity: 63%   Direction: 300°WNW
Pressure: 30.08"   Gusts: 20mph
Location:  42.52°N, 79°W
Report Text: KDKK 301753Z AUTO 30009G17KT 10SM FEW030 OVC036 08/02 A3008 RMK AO2 SLP188 T00830017 10089 20067 58004
Loading
Personal Weather Stations






























Interactive Weather Map
Tropical Storm Tracking
New forecast layout! Learn more

10-Day Weather Forecast

Advertisements
Track Severe Weather on mobile